createdAt,value
2023-04-18T00:01:00.031Z,9.21
2023-04-18T00:03:29.994Z,9.22
2023-04-18T00:05:59.434Z,9.20
2023-04-18T00:08:28.457Z,9.20
2023-04-18T00:10:56.528Z,9.19
2023-04-18T00:13:25.119Z,9.18
2023-04-18T00:15:54.313Z,9.17
2023-04-18T00:18:22.290Z,9.17
2023-04-18T00:20:50.353Z,9.15
2023-04-18T00:23:18.727Z,9.13
2023-04-18T00:25:46.590Z,9.11
2023-04-18T00:28:14.502Z,9.08
2023-04-18T00:30:42.501Z,9.06
2023-04-18T00:33:10.455Z,9.05
2023-04-18T00:35:38.569Z,9.03
2023-04-18T00:38:06.477Z,9.03
2023-04-18T00:40:34.559Z,9.04
2023-04-18T00:43:02.766Z,9.03
2023-04-18T00:45:30.716Z,9.03
2023-04-18T00:47:58.707Z,9.03
2023-04-18T00:50:27.068Z,9.02
2023-04-18T00:52:55.313Z,9.03
2023-04-18T00:55:24.443Z,9.02
2023-04-18T00:57:52.562Z,9.01
2023-04-18T01:00:20.482Z,8.99
2023-04-18T01:02:53.239Z,8.95
2023-04-18T01:05:23.753Z,8.94
2023-04-18T01:07:52.157Z,8.93
2023-04-18T01:10:20.237Z,8.94
2023-04-18T01:12:50.836Z,8.95
2023-04-18T01:15:18.765Z,8.92
2023-04-18T01:17:47.350Z,8.91
2023-04-18T01:20:16.904Z,8.93
2023-04-18T01:22:44.900Z,8.92
2023-04-18T01:25:13.123Z,8.91
2023-04-18T01:27:41.045Z,8.91
2023-04-18T01:30:09.685Z,8.91
2023-04-18T01:32:37.708Z,8.91
2023-04-18T01:35:06.326Z,8.89
2023-04-18T01:37:35.982Z,8.85
2023-04-18T01:40:04.749Z,8.87
2023-04-18T01:42:32.722Z,8.85
2023-04-18T01:45:00.920Z,8.80
2023-04-18T01:47:28.868Z,8.76
2023-04-18T01:49:56.889Z,8.74
2023-04-18T01:52:24.926Z,8.74
2023-04-18T01:54:52.882Z,8.70
2023-04-18T01:57:20.883Z,8.67
2023-04-18T01:59:50.367Z,8.67
2023-04-18T02:02:19.714Z,8.64
2023-04-18T02:04:47.798Z,8.63
2023-04-18T02:07:15.977Z,8.61
2023-04-18T02:09:43.880Z,8.57
2023-04-18T02:12:12.724Z,8.53
2023-04-18T02:14:40.753Z,8.48
2023-04-18T02:17:08.883Z,8.46
2023-04-18T02:19:37.579Z,8.43
2023-04-18T02:22:05.707Z,8.42
2023-04-18T02:24:33.722Z,8.41
2023-04-18T02:27:02.007Z,8.39
2023-04-18T02:29:30.747Z,8.37
2023-04-18T02:31:58.780Z,8.39
2023-04-18T02:34:26.732Z,8.42
2023-04-18T02:36:54.701Z,8.42
2023-04-18T02:39:22.621Z,8.38
2023-04-18T02:41:51.070Z,8.36
2023-04-18T02:44:19.096Z,8.35
2023-04-18T02:46:47.650Z,8.35
2023-04-18T02:49:15.554Z,8.34
2023-04-18T02:51:45.401Z,8.31
2023-04-18T02:54:13.688Z,8.31
2023-04-18T02:56:55.355Z,8.31
2023-04-18T02:59:27.299Z,8.30
2023-04-18T03:02:09.749Z,8.28
2023-04-18T03:04:39.461Z,8.26
2023-04-18T03:07:09.442Z,8.25
2023-04-18T03:09:38.468Z,8.23
2023-04-18T03:12:13.647Z,8.21
2023-04-18T03:14:44.493Z,8.20
2023-04-18T03:17:13.149Z,8.18
2023-04-18T03:19:43.379Z,8.18
2023-04-18T03:22:14.335Z,8.18
2023-04-18T03:24:48.460Z,8.18
2023-04-18T03:27:17.563Z,8.19
2023-04-18T03:29:46.007Z,8.18
2023-04-18T03:32:14.602Z,8.15
2023-04-18T03:34:42.558Z,8.13
2023-04-18T03:37:11.461Z,8.13
2023-04-18T03:39:44.082Z,8.11
2023-04-18T03:42:12.286Z,8.10
2023-04-18T03:44:40.658Z,8.09
2023-04-18T03:47:08.765Z,8.08
2023-04-18T03:49:39.187Z,8.07
2023-04-18T03:52:07.105Z,8.07
2023-04-18T03:54:35.338Z,8.07
2023-04-18T03:57:05.237Z,8.05
2023-04-18T03:59:33.940Z,8.04
2023-04-18T04:02:01.975Z,8.02
2023-04-18T04:04:30.246Z,8.01
2023-04-18T04:07:00.449Z,8.00
2023-04-18T04:09:28.493Z,8.01
2023-04-18T04:11:56.441Z,8.01
2023-04-18T04:14:25.398Z,8.01
2023-04-18T04:16:54.175Z,8.02
2023-04-18T04:19:23.009Z,8.03
2023-04-18T04:22:02.374Z,8.04
2023-04-18T04:24:30.856Z,8.03
2023-04-18T04:26:59.768Z,8.02
2023-04-18T04:29:29.157Z,8.01
2023-04-18T04:31:59.692Z,8.00
2023-04-18T04:34:36.937Z,8.00
2023-04-18T04:37:06.694Z,8.00
2023-04-18T04:39:39.207Z,8.02
2023-04-18T04:42:33.506Z,8.05
2023-04-18T04:45:09.493Z,8.06
2023-04-18T04:47:37.613Z,8.08
2023-04-18T04:50:07.835Z,8.07
2023-04-18T04:52:35.943Z,8.05
2023-04-18T04:55:04.652Z,8.06
2023-04-18T04:57:32.604Z,8.07
2023-04-18T05:00:01.570Z,8.09
2023-04-18T05:02:30.102Z,8.11
2023-04-18T05:04:58.117Z,8.11
2023-04-18T05:07:26.372Z,8.08
2023-04-18T05:09:54.402Z,8.06
2023-04-18T05:12:22.421Z,8.06
2023-04-18T05:14:50.371Z,8.08
2023-04-18T05:17:18.339Z,8.07
2023-04-18T05:19:46.430Z,8.06
2023-04-18T05:22:14.383Z,8.05
2023-04-18T05:24:42.280Z,8.05
2023-04-18T05:27:10.286Z,8.06
2023-04-18T05:29:38.528Z,8.05
2023-04-18T05:32:06.834Z,8.05
2023-04-18T05:34:38.878Z,8.05
2023-04-18T05:37:06.857Z,8.06
2023-04-18T05:39:34.733Z,8.07
2023-04-18T05:42:02.884Z,8.07
2023-04-18T05:44:30.836Z,8.06
2023-04-18T05:46:58.884Z,8.05
2023-04-18T05:49:26.840Z,8.05
2023-04-18T05:51:54.753Z,8.06
2023-04-18T05:54:22.685Z,8.05
2023-04-18T05:56:51.315Z,8.05
2023-04-18T05:59:20.711Z,8.06
2023-04-18T06:01:49.465Z,8.07
2023-04-18T06:04:17.700Z,8.06
2023-04-18T06:06:46.238Z,8.07
2023-04-18T06:09:14.228Z,8.07
2023-04-18T06:11:42.277Z,8.08
2023-04-18T06:14:10.535Z,8.08
2023-04-18T06:16:38.596Z,8.10
2023-04-18T06:19:06.683Z,8.11
2023-04-18T06:21:34.731Z,8.13
2023-04-18T06:24:02.755Z,8.13
2023-04-18T06:26:32.079Z,8.11
2023-04-18T06:29:00.073Z,8.11
2023-04-18T06:31:28.095Z,8.13
2023-04-18T06:33:56.153Z,8.15
2023-04-18T06:36:24.179Z,8.17
2023-04-18T06:38:52.043Z,8.18
2023-04-18T06:41:19.972Z,8.17
2023-04-18T06:44:02.049Z,8.16
2023-04-18T06:46:30.772Z,8.15
2023-04-18T06:48:59.252Z,8.14
2023-04-18T06:51:27.542Z,8.14
2023-04-18T06:53:55.700Z,8.14
2023-04-18T06:56:23.700Z,8.15
2023-04-18T06:58:52.911Z,8.18
2023-04-18T07:01:21.083Z,8.46
2023-04-18T07:03:49.286Z,8.60
2023-04-18T07:06:17.742Z,8.59
2023-04-18T07:08:45.896Z,8.55
2023-04-18T07:11:13.864Z,8.47
2023-04-18T07:13:41.817Z,8.43
2023-04-18T07:16:09.936Z,8.42
2023-04-18T07:18:38.745Z,8.41
2023-04-18T07:21:09.594Z,8.40
2023-04-18T07:23:37.922Z,8.44
2023-04-18T07:26:06.663Z,8.48
2023-04-18T07:28:34.561Z,8.50
2023-04-18T07:31:04.609Z,8.53
2023-04-18T07:33:34.047Z,8.54
2023-04-18T07:36:02.890Z,8.56
2023-04-18T07:38:30.836Z,8.58
2023-04-18T07:40:59.811Z,8.60
2023-04-18T07:43:27.842Z,8.63
2023-04-18T07:45:55.948Z,8.61
2023-04-18T07:48:25.334Z,8.59
2023-04-18T07:50:54.228Z,8.58
2023-04-18T07:53:22.146Z,8.57
2023-04-18T07:55:50.534Z,8.60
2023-04-18T07:58:18.585Z,8.64
2023-04-18T08:00:46.591Z,8.65
2023-04-18T08:03:14.816Z,8.67
2023-04-18T08:05:43.203Z,8.67
2023-04-18T08:08:12.884Z,8.71
2023-04-18T08:10:40.866Z,8.74
2023-04-18T08:13:08.856Z,8.76
2023-04-18T08:15:36.827Z,8.78
2023-04-18T08:18:04.979Z,8.81
2023-04-18T08:20:34.220Z,8.83
2023-04-18T08:23:07.908Z,8.83
2023-04-18T08:25:36.877Z,8.85
2023-04-18T08:28:05.418Z,8.88
2023-04-18T08:30:33.377Z,8.90
2023-04-18T08:33:01.858Z,8.90
2023-04-18T08:35:29.879Z,8.96
2023-04-18T08:37:57.760Z,9.05
2023-04-18T08:40:25.794Z,9.05
2023-04-18T08:42:57.032Z,9.04
2023-04-18T08:45:25.131Z,9.02
2023-04-18T08:47:53.443Z,9.04
2023-04-18T08:50:21.774Z,9.11
2023-04-18T08:52:51.238Z,9.18
2023-04-18T08:55:19.624Z,9.22
2023-04-18T08:57:48.060Z,9.23
2023-04-18T09:00:18.094Z,9.27
2023-04-18T09:02:47.111Z,9.27
2023-04-18T09:05:19.814Z,9.29
2023-04-18T09:07:49.618Z,9.31
2023-04-18T09:10:36.594Z,9.30
2023-04-18T09:13:04.661Z,9.30
2023-04-18T09:15:32.692Z,9.34
2023-04-18T09:18:03.237Z,9.39
2023-04-18T09:20:41.474Z,9.42
2023-04-18T09:23:23.425Z,9.47
2023-04-18T09:25:52.412Z,9.53
2023-04-18T09:28:31.969Z,9.53
2023-04-18T09:31:11.962Z,9.53
2023-04-18T09:33:44.806Z,9.56
2023-04-18T09:36:24.359Z,9.62
2023-04-18T09:38:56.276Z,9.63
2023-04-18T09:41:25.332Z,9.58
2023-04-18T09:44:13.184Z,9.55
2023-04-18T09:46:46.675Z,9.53
2023-04-18T09:49:16.838Z,9.51
2023-04-18T09:51:46.284Z,9.55
2023-04-18T09:54:18.474Z,9.61
2023-04-18T09:56:50.461Z,9.68
2023-04-18T09:59:44.662Z,9.72
2023-04-18T10:02:19.700Z,9.77
2023-04-18T10:04:50.015Z,9.82
2023-04-18T10:07:18.085Z,9.86
2023-04-18T10:09:46.903Z,9.87
2023-04-18T10:12:17.105Z,9.92
2023-04-18T10:14:45.923Z,9.96
2023-04-18T10:17:14.849Z,9.99
2023-04-18T10:19:44.348Z,10.05
2023-04-18T10:22:13.519Z,10.08
2023-04-18T10:24:56.328Z,10.14
2023-04-18T10:27:49.253Z,10.17
2023-04-18T10:30:18.592Z,10.17
2023-04-18T10:32:46.783Z,10.13
2023-04-18T10:35:15.012Z,10.07
2023-04-18T10:37:50.766Z,10.05
2023-04-18T10:40:33.104Z,10.10
2023-04-18T10:43:01.399Z,10.19
2023-04-18T10:45:32.548Z,10.26
2023-04-18T10:48:24.476Z,10.30
2023-04-18T10:51:15.754Z,10.28
2023-04-18T10:53:52.020Z,10.24
2023-04-18T10:56:20.665Z,10.25
2023-04-18T10:58:53.103Z,10.29
2023-04-18T11:01:33.050Z,10.34
2023-04-18T11:04:01.561Z,10.45
2023-04-18T11:06:31.391Z,10.55
2023-04-18T11:09:13.497Z,10.65
2023-04-18T11:11:42.462Z,10.70
2023-04-18T11:14:11.234Z,10.67
2023-04-18T11:16:40.612Z,10.60
2023-04-18T11:19:20.078Z,10.55
2023-04-18T11:21:48.089Z,10.54
2023-04-18T11:24:24.808Z,10.59
2023-04-18T11:26:56.213Z,10.64
2023-04-18T11:29:24.373Z,10.66
2023-04-18T11:31:58.597Z,10.67
2023-04-18T11:34:31.427Z,10.72
2023-04-18T11:36:59.969Z,10.76
2023-04-18T11:39:28.099Z,10.70
2023-04-18T11:41:57.196Z,10.75
2023-04-18T11:44:26.857Z,10.76
2023-04-18T11:46:54.932Z,10.81
2023-04-18T11:49:26.708Z,10.88
2023-04-18T11:51:55.077Z,10.99
2023-04-18T11:54:39.227Z,11.03
2023-04-18T11:57:20.112Z,11.13
2023-04-18T11:59:52.645Z,11.27
2023-04-18T12:02:22.842Z,11.39
2023-04-18T12:04:55.263Z,11.44
2023-04-18T12:07:41.214Z,11.46
2023-04-18T12:10:27.045Z,11.46
2023-04-18T12:12:58.744Z,11.43
2023-04-18T12:15:28.658Z,11.39
2023-04-18T12:18:02.036Z,11.30
2023-04-18T12:20:37.343Z,11.30
2023-04-18T12:23:06.080Z,11.38
2023-04-18T12:25:35.104Z,11.44
2023-04-18T12:28:14.871Z,11.47
2023-04-18T12:30:42.929Z,11.54
2023-04-18T12:33:11.238Z,11.60
2023-04-18T12:35:39.269Z,11.64
2023-04-18T12:38:07.147Z,11.60
2023-04-18T12:40:35.022Z,11.55
2023-04-18T12:43:03.903Z,11.50
2023-04-18T12:45:32.197Z,11.47
2023-04-18T12:48:00.243Z,11.46
2023-04-18T12:50:28.382Z,11.47
2023-04-18T12:52:59.177Z,11.47
2023-04-18T12:55:28.105Z,11.52
2023-04-18T12:57:56.660Z,11.58
2023-04-18T13:00:30.384Z,11.61
2023-04-18T13:02:59.686Z,11.58
2023-04-18T13:05:32.503Z,11.54
2023-04-18T13:10:32.928Z,11.40
2023-04-18T13:13:00.906Z,11.38
2023-04-18T13:15:28.962Z,11.39
2023-04-18T13:17:57.174Z,11.40
2023-04-18T13:20:25.221Z,11.34
2023-04-18T13:22:53.109Z,11.22
2023-04-18T13:25:21.845Z,11.09
2023-04-18T13:27:52.789Z,10.97
2023-04-18T13:30:21.221Z,10.87
2023-04-18T13:32:49.240Z,10.76
2023-04-18T13:35:17.292Z,10.69
2023-04-18T13:37:46.167Z,10.68
2023-04-18T13:40:14.181Z,10.68
2023-04-18T13:42:43.071Z,10.73
2023-04-18T13:45:11.212Z,10.77
2023-04-18T13:47:39.578Z,10.81
2023-04-18T13:50:08.222Z,10.85
2023-04-18T13:52:36.483Z,10.91
2023-04-18T13:55:04.960Z,10.95
2023-04-18T13:57:33.615Z,10.99
2023-04-18T14:00:01.755Z,11.05
2023-04-18T14:02:40.686Z,11.12
2023-04-18T14:05:09.375Z,11.16
2023-04-18T14:07:38.532Z,11.21
2023-04-18T14:10:07.008Z,11.30
2023-04-18T14:12:35.200Z,11.41
2023-04-18T14:15:16.933Z,11.48
2023-04-18T14:17:45.963Z,11.49
2023-04-18T14:20:20.677Z,11.50
2023-04-18T14:22:52.362Z,11.55
2023-04-18T14:25:21.118Z,11.60
2023-04-18T14:27:49.081Z,11.71
2023-04-18T14:30:17.252Z,11.90
2023-04-18T14:32:45.789Z,12.04
2023-04-18T14:35:13.783Z,12.16
2023-04-18T14:37:42.182Z,12.25
2023-04-18T14:40:11.386Z,12.29
2023-04-18T14:42:39.336Z,12.32
2023-04-18T14:45:08.517Z,12.36
2023-04-18T14:47:39.060Z,12.38
2023-04-18T14:50:08.299Z,12.32
2023-04-18T14:52:36.200Z,12.32
2023-04-18T14:55:05.597Z,12.28
2023-04-18T14:57:37.772Z,12.29
2023-04-18T15:00:11.042Z,12.36
2023-04-18T15:02:39.931Z,12.39
2023-04-18T15:05:09.114Z,12.32
2023-04-18T15:07:38.034Z,12.32
2023-04-18T15:10:07.027Z,12.32
2023-04-18T15:12:34.926Z,12.30
2023-04-18T15:15:02.895Z,12.29
2023-04-18T15:17:30.890Z,12.35
2023-04-18T15:19:59.641Z,12.39
2023-04-18T15:22:27.597Z,12.37
2023-04-18T15:24:55.496Z,12.37
2023-04-18T15:27:23.416Z,12.39
2023-04-18T15:29:52.069Z,12.41
2023-04-18T15:32:20.093Z,12.35
2023-04-18T15:34:48.184Z,12.31
2023-04-18T15:37:16.207Z,12.31
2023-04-18T15:39:44.221Z,12.30
2023-04-18T15:42:12.136Z,12.28
2023-04-18T15:44:40.086Z,12.23
2023-04-18T15:47:07.970Z,12.26
2023-04-18T15:49:35.903Z,12.29
2023-04-18T15:52:04.787Z,12.29
2023-04-18T15:54:33.080Z,12.26
2023-04-18T15:57:02.480Z,12.26
2023-04-18T15:59:31.195Z,12.33
2023-04-18T16:01:59.309Z,12.40
2023-04-18T16:04:27.665Z,12.48
2023-04-18T16:06:55.951Z,12.51
2023-04-18T16:09:23.986Z,12.47
2023-04-18T16:11:53.283Z,12.37
2023-04-18T16:14:21.401Z,12.31
2023-04-18T16:16:49.296Z,12.29
2023-04-18T16:19:17.677Z,12.31
2023-04-18T16:21:47.127Z,12.33
2023-04-18T16:24:15.970Z,12.35
2023-04-18T16:26:44.197Z,12.32
2023-04-18T16:29:12.267Z,12.27
2023-04-18T16:31:41.574Z,12.25
2023-04-18T16:34:09.829Z,12.21
2023-04-18T16:36:37.708Z,12.11
2023-04-18T16:39:05.715Z,12.08
2023-04-18T16:41:33.616Z,12.06
2023-04-18T16:44:01.557Z,12.01
2023-04-18T16:46:32.684Z,11.98
2023-04-18T16:49:01.626Z,11.99
2023-04-18T16:51:31.374Z,12.04
2023-04-18T16:53:59.271Z,12.04
2023-04-18T16:56:27.244Z,12.05
2023-04-18T16:58:55.486Z,12.02
2023-04-18T17:01:23.412Z,12.01
2023-04-18T17:03:51.648Z,11.99
2023-04-18T17:06:19.626Z,11.95
2023-04-18T17:08:48.956Z,11.90
2023-04-18T17:11:16.809Z,11.88
2023-04-18T17:13:44.778Z,11.82
2023-04-18T17:16:12.886Z,11.75
2023-04-18T17:18:41.811Z,11.69
2023-04-18T17:21:12.491Z,11.65
2023-04-18T17:23:42.497Z,11.60
2023-04-18T17:26:10.743Z,11.59
2023-04-18T17:28:38.985Z,11.57
2023-04-18T17:31:07.858Z,11.53
2023-04-18T17:33:36.074Z,11.50
2023-04-18T17:36:06.378Z,11.50
2023-04-18T17:38:34.340Z,11.50
2023-04-18T17:41:04.595Z,11.49
2023-04-18T17:43:32.700Z,11.48
2023-04-18T17:46:02.456Z,11.48
2023-04-18T17:48:30.430Z,11.45
2023-04-18T17:50:58.281Z,11.42
2023-04-18T17:53:26.108Z,11.40
2023-04-18T17:55:55.566Z,11.36
2023-04-18T17:58:23.709Z,11.32
2023-04-18T18:00:52.048Z,11.30
2023-04-18T18:03:20.705Z,11.29
2023-04-18T18:05:49.492Z,11.28
2023-04-18T18:08:17.628Z,11.27
2023-04-18T18:10:47.568Z,11.26
2023-04-18T18:13:15.788Z,11.25
2023-04-18T18:15:43.765Z,11.24
2023-04-18T18:18:11.805Z,11.24
2023-04-18T18:20:43.254Z,11.23
2023-04-18T18:23:11.469Z,11.21
2023-04-18T18:25:40.408Z,11.20
2023-04-18T18:28:08.738Z,11.19
2023-04-18T18:30:38.086Z,11.19
2023-04-18T18:33:06.092Z,11.19
2023-04-18T18:35:34.027Z,11.17
2023-04-18T18:38:02.166Z,11.16
2023-04-18T18:40:30.673Z,11.15
2023-04-18T18:42:59.538Z,11.14
2023-04-18T18:45:27.711Z,11.14
2023-04-18T18:47:55.943Z,11.11
2023-04-18T18:50:24.193Z,11.09
2023-04-18T18:52:52.465Z,11.06
2023-04-18T18:55:20.412Z,11.02
2023-04-18T18:57:48.693Z,10.98
2023-04-18T19:00:16.804Z,10.94
2023-04-18T19:02:45.329Z,10.91
2023-04-18T19:05:14.006Z,10.88
2023-04-18T19:07:42.408Z,10.85
2023-04-18T19:10:11.038Z,10.84
2023-04-18T19:12:38.965Z,10.82
2023-04-18T19:15:07.504Z,10.82
2023-04-18T19:17:35.833Z,10.80
2023-04-18T19:20:04.189Z,10.78
2023-04-18T19:22:32.216Z,10.74
2023-04-18T19:25:00.863Z,10.72
2023-04-18T19:27:28.982Z,10.70
2023-04-18T19:29:57.033Z,10.70
2023-04-18T19:32:25.088Z,10.66
2023-04-18T19:34:53.078Z,10.62
2023-04-18T19:37:21.111Z,10.60
2023-04-18T19:39:49.190Z,10.60
2023-04-18T19:42:17.253Z,10.61
2023-04-18T19:44:45.286Z,10.62
2023-04-18T19:47:13.284Z,10.61
2023-04-18T19:49:41.235Z,10.60
2023-04-18T19:52:09.296Z,10.59
2023-04-18T19:54:37.249Z,10.56
2023-04-18T19:57:06.412Z,10.56
2023-04-18T19:59:34.310Z,10.56
2023-04-18T20:02:05.692Z,10.58
2023-04-18T20:04:34.535Z,10.58
2023-04-18T20:07:02.893Z,10.60
2023-04-18T20:09:30.815Z,10.61
2023-04-18T20:12:00.588Z,10.61
2023-04-18T20:14:29.443Z,10.61
2023-04-18T20:16:57.529Z,10.61
2023-04-18T20:19:25.785Z,10.61
2023-04-18T20:21:53.691Z,10.61
2023-04-18T20:24:21.950Z,10.61
2023-04-18T20:26:51.360Z,10.62
2023-04-18T20:29:19.367Z,10.63
2023-04-18T20:31:47.299Z,10.64
2023-04-18T20:34:15.823Z,10.67
2023-04-18T20:36:44.805Z,10.69
2023-04-18T20:39:13.729Z,10.71
2023-04-18T20:41:48.470Z,10.74
2023-04-18T20:44:19.089Z,10.76
2023-04-18T20:46:47.128Z,10.78
2023-04-18T20:49:15.194Z,10.78
2023-04-18T20:51:43.382Z,10.78
2023-04-18T20:54:11.342Z,10.80
2023-04-18T20:56:39.439Z,10.81
2023-04-18T20:59:07.360Z,10.82
2023-04-18T21:01:37.033Z,10.83
2023-04-18T21:04:05.283Z,10.84
2023-04-18T21:06:33.305Z,10.85
2023-04-18T21:09:01.237Z,10.86
2023-04-18T21:11:29.123Z,10.86
2023-04-18T21:13:57.079Z,10.87
2023-04-18T21:16:25.526Z,10.88
2023-04-18T21:18:55.121Z,10.88
2023-04-18T21:21:23.037Z,10.89
2023-04-18T21:23:51.093Z,10.88
2023-04-18T21:26:19.092Z,10.89
2023-04-18T21:28:54.546Z,10.88
2023-04-18T21:31:22.583Z,10.87
2023-04-18T21:33:57.994Z,10.87
2023-04-18T21:36:27.866Z,10.86
2023-04-18T21:38:57.105Z,10.84
2023-04-18T21:41:25.927Z,10.82
2023-04-18T21:43:54.103Z,10.81
2023-04-18T21:46:22.301Z,10.79
2023-04-18T21:48:50.387Z,10.77
2023-04-18T21:51:18.339Z,10.73
2023-04-18T21:53:46.443Z,10.70
2023-04-18T21:56:14.574Z,10.68
2023-04-18T21:58:42.509Z,10.66
2023-04-18T22:01:10.518Z,10.65
2023-04-18T22:03:38.594Z,10.63
2023-04-18T22:06:06.705Z,10.61
2023-04-18T22:08:34.626Z,10.59
2023-04-18T22:11:04.965Z,10.57
2023-04-18T22:13:33.222Z,10.56
2023-04-18T22:16:02.982Z,10.54
2023-04-18T22:18:34.132Z,10.53
2023-04-18T22:21:03.425Z,10.52
2023-04-18T22:23:31.548Z,10.52
2023-04-18T22:25:59.532Z,10.50
2023-04-18T22:28:30.282Z,10.48
2023-04-18T22:30:58.488Z,10.46
2023-04-18T22:33:26.476Z,10.45
2023-04-18T22:35:55.723Z,10.44
2023-04-18T22:38:25.045Z,10.42
2023-04-18T22:40:53.112Z,10.41
2023-04-18T22:43:23.728Z,10.40
2023-04-18T22:45:51.753Z,10.40
2023-04-18T22:48:20.220Z,10.38
2023-04-18T22:50:49.884Z,10.36
2023-04-18T22:53:18.130Z,10.35
2023-04-18T22:55:46.491Z,10.33
2023-04-18T22:58:14.524Z,10.30
2023-04-18T23:00:42.419Z,10.28
2023-04-18T23:03:10.852Z,10.27
2023-04-18T23:05:39.002Z,10.25
2023-04-18T23:08:07.165Z,10.24
2023-04-18T23:10:35.198Z,10.23
2023-04-18T23:13:03.158Z,10.22
2023-04-18T23:15:31.119Z,10.21
2023-04-18T23:17:59.106Z,10.20
2023-04-18T23:20:27.116Z,10.20
2023-04-18T23:22:56.013Z,10.21
2023-04-18T23:25:24.104Z,10.20
2023-04-18T23:27:52.043Z,10.19
2023-04-18T23:30:20.052Z,10.17
2023-04-18T23:32:47.980Z,10.16
2023-04-18T23:35:16.007Z,10.13
2023-04-18T23:37:43.875Z,10.09
2023-04-18T23:40:11.845Z,10.06
2023-04-18T23:42:39.771Z,10.04
2023-04-18T23:45:08.157Z,10.02
2023-04-18T23:47:36.537Z,9.99
2023-04-18T23:50:05.080Z,9.99
2023-04-18T23:52:33.471Z,10.00
2023-04-18T23:55:01.684Z,10.01
2023-04-18T23:57:29.906Z,10.01
2023-04-18T23:59:57.812Z,10.01
